CST,Max TemperatureF,Mean TemperatureF,Min TemperatureF,Max Dew PointF,MeanDew PointF,Min DewpointF,Max Humidity, Mean Humidity, Min Humidity, Max Sea Level PressureIn, Mean Sea Level PressureIn, Min Sea Level PressureIn, Max VisibilityMiles, Mean VisibilityMiles, Min VisibilityMiles, Max Wind SpeedMPH, Mean Wind SpeedMPH, Max Gust SpeedMPH,PrecipitationIn, CloudCover, Events, WindDirDegrees
2013-1-1,32,24,17,30,22,16,100,89,74,30.30,30.22,30.08,10,7,1,18,12,22,0.00,5,Rain-Snow,344
2013-1-2,37,24,10,28,20,9,100,84,60,30.30,30.24,30.17,10,8,4,14,6,20,0.00,0,,263
2013-1-3,37,26,15,25,20,14,100,81,52,30.46,30.40,30.29,10,10,9,13,7,,0.00,1,,304
2013-1-4,48,32,15,27,22,12,93,65,32,30.44,30.34,30.26,10,10,10,21,7,28,0.00,3,,188
2013-1-5,48,36,23,32,27,18,86,64,43,30.30,30.21,30.12,10,10,10,21,10,25,0.00,4,,218
2013-1-6,50,34,19,25,20,18,93,63,30,30.43,30.34,30.30,10,10,10,12,7,,0.00,0,,251
2013-1-7,53,38,23,25,21,18,80,56,30,30.29,30.17,30.04,10,10,10,21,10,28,0.00,0,,169
2013-1-8,57,42,28,37,30,25,100,69,38,30.19,30.05,29.97,10,10,3,20,8,24,0.00,2,,171
2013-1-9,55,44,32,39,32,28,100,69,36,30.36,30.26,30.16,10,8,2,18,9,25,0.03,4,Rain,36
2013-1-10,51,48,44,52,46,39,100,97,76,30.14,29.89,29.77,10,4,0,18,11,24,0.14,8,Fog-Rain,114
2013-1-11,62,53,44,48,44,30,100,75,44,29.81,29.69,29.59,10,10,10,28,15,36,0.00,2,Thunderstorm,192
2013-1-12,46,35,23,32,21,14,81,65,50,30.10,29.99,29.83,10,10,8,24,16,31,0.00,6,Rain,354
2013-1-13,28,22,15,14,8,5,73,57,37,30.38,30.25,30.08,10,10,10,18,13,22,0.00,0,,344
2013-1-14,32,24,15,14,9,5,79,59,32,30.46,30.38,30.32,10,10,10,13,6,17,0.00,3,,36
2013-1-15,35,27,19,14,11,7,80,59,30,30.34,30.27,30.21,10,10,10,9,7,17,0.00,3,,4
2013-1-16,48,31,14,25,17,9,86,64,29,30.22,30.15,30.09,10,10,10,16,7,20,0.00,1,,243
2013-1-17,53,40,26,32,27,23,93,68,35,30.51,30.40,30.22,10,10,10,14,8,16,0.00,0,,336
2013-1-18,59,44,28,30,28,25,86,59,31,30.43,30.27,30.09,10,10,10,32,12,37,0.00,0,,181
2013-1-19,64,48,32,32,28,23,75,50,24,30.22,30.11,30.04,10,10,10,22,13,30,0.00,0,,251
2013-1-20,59,42,26,28,22,10,80,53,27,30.34,30.22,30.12,10,10,10,23,9,32,0.00,0,,41
2013-1-21,39,28,17,12,8,7,68,46,26,30.45,30.35,30.26,10,10,10,16,9,20,0.00,2,,41
2013-1-22,53,35,17,23,17,12,86,57,28,30.29,30.22,30.14,10,10,10,13,6,18,0.00,2,,103
2013-1-23,57,39,21,34,26,16,86,62,41,30.25,30.18,30.11,10,10,7,20,5,30,0.00,2,,20
2013-1-24,39,32,26,25,19,10,93,68,41,30.31,30.23,30.11,10,8,3,20,13,25,0.00,8,,37
2013-1-25,48,36,24,25,24,21,93,65,37,30.26,30.20,30.14,10,9,5,10,6,,0.00,3,,349
2013-1-26,53,40,28,41,31,21,87,67,44,30.23,30.14,30.04,10,10,7,18,7,24,0.00,4,,137
2013-1-27,68,55,42,55,50,41,100,86,60,30.02,29.85,29.74,10,8,1,37,17,46,0.00,6,Rain,170
2013-1-28,75,65,55,59,56,52,94,76,53,29.85,29.77,29.67,10,10,10,32,18,43,0.00,2,,183
2013-1-29,66,52,37,59,44,32,100,84,75,29.67,29.59,29.50,10,9,3,28,16,34,0.28,6,Rain-Thunderstorm,318
2013-1-30,39,32,26,32,24,19,87,72,45,30.03,29.90,29.60,10,10,10,31,19,40,0.00,4,,320
2013-1-31,41,30,19,27,18,7,86,66,47,30.46,30.18,29.97,10,10,10,24,8,31,0.00,0,,358